SHT8Y EGLL-EGPH
Flight info
| Callsign | SHT8Y |
|---|---|
| Flight time | 0h 51m |
| Altitude | 32000 |
| Route | ULTIB1J ULTIB T420 TNT UN57 POL UN601 RIBEL DCT INPIP INPIP1E |
| Aircraft | A320/M-SDE3FGIJ1KRWXY/SB1 |
Departure
| Time | 2026-04-25 11:46 |
|---|---|
| Airport | London Heathrow Airport (EGLL) |
Arrival
| Time | 2026-04-25 12:37 |
|---|---|
| Airport | Edinburgh Airport (EGPH) |
| Time | Latitude | Longitude | Altitude | Speed | Heading |
|---|---|---|---|---|---|
| 2026-04-25 11:02 | 51.47233 | -0.48585 | 86 ft | 0 kts | 270° |
| 2026-04-25 11:29 | 51.47233 | -0.48583 | 91 ft | 2 kts | 270° |
| 2026-04-25 11:30 | 51.47233 | -0.48541 | 88 ft | 4 kts | 270° |
| 2026-04-25 11:30 | 51.47233 | -0.48507 | 89 ft | 4 kts | 261° |
| 2026-04-25 11:30 | 51.47243 | -0.48477 | 87 ft | 4 kts | 197° |
| 2026-04-25 11:30 | 51.47268 | -0.48473 | 86 ft | 3 kts | 180° |
| 2026-04-25 11:31 | 51.47272 | -0.48473 | 86 ft | 0 kts | 180° |
| 2026-04-25 11:35 | 51.47270 | -0.48473 | 86 ft | 1 kts | 180° |
| 2026-04-25 11:35 | 51.47255 | -0.48473 | 90 ft | 3 kts | 180° |
| 2026-04-25 11:35 | 51.47226 | -0.48473 | 88 ft | 5 kts | 179° |
| 2026-04-25 11:35 | 51.47183 | -0.48472 | 88 ft | 7 kts | 179° |
| 2026-04-25 11:36 | 51.47127 | -0.48472 | 88 ft | 9 kts | 179° |
| 2026-04-25 11:36 | 51.47056 | -0.48471 | 89 ft | 11 kts | 179° |
| 2026-04-25 11:36 | 51.46973 | -0.48470 | 88 ft | 13 kts | 179° |
| 2026-04-25 11:36 | 51.46874 | -0.48470 | 88 ft | 15 kts | 180° |
| 2026-04-25 11:37 | 51.46778 | -0.48471 | 86 ft | 14 kts | 180° |
| 2026-04-25 11:37 | 51.46685 | -0.48466 | 86 ft | 13 kts | 166° |
| 2026-04-25 11:37 | 51.46652 | -0.48337 | 86 ft | 15 kts | 91° |
| 2026-04-25 11:37 | 51.46652 | -0.48161 | 86 ft | 17 kts | 89° |
| 2026-04-25 11:38 | 51.46652 | -0.47959 | 86 ft | 19 kts | 90° |
| 2026-04-25 11:38 | 51.46651 | -0.47733 | 87 ft | 21 kts | 89° |
| 2026-04-25 11:38 | 51.46653 | -0.47484 | 86 ft | 23 kts | 89° |
| 2026-04-25 11:38 | 51.46654 | -0.47215 | 86 ft | 25 kts | 90° |
| 2026-04-25 11:39 | 51.46654 | -0.46938 | 86 ft | 22 kts | 88° |
| 2026-04-25 11:39 | 51.46657 | -0.46740 | 88 ft | 17 kts | 90° |
| 2026-04-25 11:39 | 51.46655 | -0.46535 | 86 ft | 19 kts | 90° |
| 2026-04-25 11:39 | 51.46656 | -0.46306 | 88 ft | 22 kts | 89° |
| 2026-04-25 11:40 | 51.46658 | -0.46054 | 88 ft | 24 kts | 90° |
| 2026-04-25 11:40 | 51.46659 | -0.45791 | 87 ft | 24 kts | 89° |
| 2026-04-25 11:40 | 51.46661 | -0.45527 | 86 ft | 23 kts | 89° |
| 2026-04-25 11:40 | 51.46662 | -0.45260 | 86 ft | 25 kts | 90° |
| 2026-04-25 11:41 | 51.46663 | -0.44979 | 86 ft | 25 kts | 89° |
| 2026-04-25 11:41 | 51.46665 | -0.44714 | 86 ft | 22 kts | 89° |
| 2026-04-25 11:41 | 51.46666 | -0.44464 | 86 ft | 22 kts | 90° |
| 2026-04-25 11:41 | 51.46665 | -0.44263 | 86 ft | 11 kts | 90° |
| 2026-04-25 11:42 | 51.46665 | -0.44203 | 86 ft | 2 kts | 89° |
| 2026-04-25 11:42 | 51.46665 | -0.44201 | 86 ft | 0 kts | 89° |
| 2026-04-25 11:43 | 51.46665 | -0.44200 | 86 ft | 1 kts | 89° |
| 2026-04-25 11:43 | 51.46665 | -0.44180 | 86 ft | 3 kts | 89° |
| 2026-04-25 11:43 | 51.46665 | -0.44134 | 86 ft | 5 kts | 89° |
| 2026-04-25 11:44 | 51.46653 | -0.44072 | 89 ft | 7 kts | 131° |
| 2026-04-25 11:44 | 51.46601 | -0.44052 | 86 ft | 9 kts | 181° |
| 2026-04-25 11:44 | 51.46533 | -0.44055 | 87 ft | 10 kts | 181° |
| 2026-04-25 11:44 | 51.46493 | -0.44111 | 86 ft | 7 kts | 263° |
| 2026-04-25 11:45 | 51.46493 | -0.44129 | 87 ft | 0 kts | 269° |
| 2026-04-25 11:45 | 51.46493 | -0.44130 | 87 ft | 0 kts | 269° |
| 2026-04-25 11:45 | 51.46493 | -0.44144 | 86 ft | 9 kts | 269° |
| 2026-04-25 11:46 | 51.46493 | -0.44605 | 88 ft | 76 kts | 270° |
| 2026-04-25 11:46 | 51.46488 | -0.45773 | 88 ft | 131 kts | 269° |
| 2026-04-25 11:46 | 51.46482 | -0.47464 | 129 ft | 168 kts | 270° |
| 2026-04-25 11:46 | 51.46479 | -0.49314 | 726 ft | 166 kts | 270° |
| 2026-04-25 11:47 | 51.46615 | -0.51166 | 1323 ft | 170 kts | 288° |
| 2026-04-25 11:47 | 51.47166 | -0.52937 | 1657 ft | 187 kts | 303° |
| 2026-04-25 11:47 | 51.47860 | -0.54824 | 1957 ft | 207 kts | 299° |
| 2026-04-25 11:47 | 51.48566 | -0.56995 | 2240 ft | 232 kts | 297° |
| 2026-04-25 11:48 | 51.49326 | -0.59429 | 2706 ft | 254 kts | 296° |
| 2026-04-25 11:48 | 51.50127 | -0.62015 | 3492 ft | 261 kts | 296° |
| 2026-04-25 11:48 | 51.50988 | -0.64605 | 4388 ft | 265 kts | 304° |
| 2026-04-25 11:48 | 51.52280 | -0.66732 | 5287 ft | 269 kts | 325° |
| 2026-04-25 11:49 | 51.53999 | -0.67905 | 6184 ft | 273 kts | 348° |
| 2026-04-25 11:49 | 51.55908 | -0.68187 | 6901 ft | 278 kts | 355° |
| 2026-04-25 11:49 | 51.57840 | -0.68396 | 7141 ft | 278 kts | 355° |
| 2026-04-25 11:49 | 51.59761 | -0.68604 | 7258 ft | 279 kts | 355° |
| 2026-04-25 11:50 | 51.61705 | -0.68816 | 8074 ft | 280 kts | 355° |
| 2026-04-25 11:50 | 51.63656 | -0.69030 | 8940 ft | 282 kts | 355° |
| 2026-04-25 11:50 | 51.65622 | -0.69244 | 9762 ft | 285 kts | 355° |
| 2026-04-25 11:50 | 51.67612 | -0.69464 | 10506 ft | 291 kts | 355° |
| 2026-04-25 11:51 | 51.69711 | -0.69701 | 10735 ft | 314 kts | 355° |
| 2026-04-25 11:51 | 51.71971 | -0.69955 | 10955 ft | 334 kts | 355° |
| 2026-04-25 11:51 | 51.74323 | -0.70218 | 11487 ft | 343 kts | 355° |
| 2026-04-25 11:51 | 51.76718 | -0.70486 | 12121 ft | 347 kts | 355° |
| 2026-04-25 11:52 | 51.79147 | -0.70759 | 12771 ft | 351 kts | 355° |
| 2026-04-25 11:52 | 51.81566 | -0.71033 | 13139 ft | 354 kts | 355° |
| 2026-04-25 11:52 | 51.84029 | -0.71309 | 13220 ft | 355 kts | 355° |
| 2026-04-25 11:52 | 51.86496 | -0.71587 | 13225 ft | 355 kts | 355° |
| 2026-04-25 11:53 | 51.88955 | -0.71862 | 13226 ft | 355 kts | 355° |
| 2026-04-25 11:53 | 51.91417 | -0.72141 | 13226 ft | 354 kts | 355° |
| 2026-04-25 11:53 | 51.93890 | -0.72421 | 13628 ft | 358 kts | 355° |
| 2026-04-25 11:53 | 51.96386 | -0.72701 | 14293 ft | 361 kts | 355° |
| 2026-04-25 11:54 | 51.98903 | -0.72984 | 14883 ft | 364 kts | 355° |
| 2026-04-25 11:54 | 52.01431 | -0.73340 | 15466 ft | 366 kts | 350° |
| 2026-04-25 11:54 | 52.06346 | -0.75606 | 16607 ft | 370 kts | 340° |
| 2026-04-25 11:55 | 52.08805 | -0.76899 | 17198 ft | 372 kts | 340° |
| 2026-04-25 11:55 | 52.11275 | -0.78194 | 17787 ft | 375 kts | 340° |
| 2026-04-25 11:55 | 52.13767 | -0.79495 | 18370 ft | 377 kts | 340° |
| 2026-04-25 11:55 | 52.16280 | -0.80808 | 18885 ft | 381 kts | 340° |
| 2026-04-25 11:56 | 52.18811 | -0.82132 | 19405 ft | 384 kts | 340° |
| 2026-04-25 11:56 | 52.21364 | -0.83468 | 19878 ft | 387 kts | 340° |
| 2026-04-25 11:56 | 52.23928 | -0.84860 | 20378 ft | 389 kts | 336° |
| 2026-04-25 11:56 | 52.26358 | -0.86819 | 20847 ft | 390 kts | 327° |
| 2026-04-25 11:57 | 52.28683 | -0.89141 | 21325 ft | 393 kts | 327° |
| 2026-04-25 11:57 | 52.31032 | -0.91488 | 21786 ft | 397 kts | 327° |
| 2026-04-25 11:57 | 52.33394 | -0.93844 | 22235 ft | 399 kts | 327° |
| 2026-04-25 11:57 | 52.35775 | -0.96214 | 22660 ft | 402 kts | 327° |
| 2026-04-25 11:58 | 52.38176 | -0.98608 | 23106 ft | 405 kts | 326° |
| 2026-04-25 11:58 | 52.40595 | -1.01023 | 23498 ft | 410 kts | 326° |
| 2026-04-25 11:58 | 52.43041 | -1.03473 | 23875 ft | 414 kts | 326° |
| 2026-04-25 11:58 | 52.45505 | -1.05947 | 24231 ft | 417 kts | 326° |
| 2026-04-25 11:59 | 52.47145 | -1.07597 | 24476 ft | 418 kts | 326° |
| 2026-04-25 11:59 | 52.49634 | -1.10099 | 24851 ft | 420 kts | 326° |
| 2026-04-25 11:59 | 52.52134 | -1.12612 | 25227 ft | 423 kts | 326° |
| 2026-04-25 12:00 | 52.57176 | -1.17680 | 25971 ft | 427 kts | 326° |
| 2026-04-25 12:00 | 52.59712 | -1.20233 | 26307 ft | 429 kts | 326° |
| 2026-04-25 12:00 | 52.64825 | -1.25399 | 27014 ft | 433 kts | 326° |
| 2026-04-25 12:01 | 52.67404 | -1.28017 | 27358 ft | 436 kts | 326° |
| 2026-04-25 12:01 | 52.69951 | -1.30606 | 27713 ft | 438 kts | 326° |
| 2026-04-25 12:01 | 52.72584 | -1.33285 | 28082 ft | 440 kts | 326° |
| 2026-04-25 12:01 | 52.75164 | -1.35910 | 28461 ft | 442 kts | 326° |
| 2026-04-25 12:02 | 52.80440 | -1.41296 | 29143 ft | 447 kts | 326° |
| 2026-04-25 12:02 | 52.83087 | -1.44003 | 29489 ft | 449 kts | 326° |
| 2026-04-25 12:02 | 52.85748 | -1.46725 | 29952 ft | 448 kts | 326° |
| 2026-04-25 12:03 | 52.88397 | -1.49440 | 30432 ft | 447 kts | 326° |
| 2026-04-25 12:03 | 52.91038 | -1.52155 | 30857 ft | 446 kts | 326° |
| 2026-04-25 12:03 | 52.93674 | -1.54871 | 31258 ft | 445 kts | 326° |
| 2026-04-25 12:03 | 52.96268 | -1.57543 | 31667 ft | 444 kts | 326° |
| 2026-04-25 12:04 | 52.98926 | -1.60286 | 32085 ft | 443 kts | 326° |
| 2026-04-25 12:04 | 53.01508 | -1.62957 | 32207 ft | 444 kts | 326° |
| 2026-04-25 12:04 | 53.06912 | -1.67930 | 32220 ft | 447 kts | 336° |
| 2026-04-25 12:05 | 53.12753 | -1.71531 | 32220 ft | 447 kts | 337° |
| 2026-04-25 12:05 | 53.18586 | -1.75148 | 32214 ft | 447 kts | 337° |
| 2026-04-25 12:06 | 53.24421 | -1.78790 | 32216 ft | 447 kts | 337° |
| 2026-04-25 12:06 | 53.30252 | -1.82432 | 32217 ft | 448 kts | 337° |
| 2026-04-25 12:07 | 53.36093 | -1.86086 | 32218 ft | 448 kts | 337° |
| 2026-04-25 12:07 | 53.41929 | -1.89742 | 32222 ft | 448 kts | 337° |
| 2026-04-25 12:08 | 53.47761 | -1.93420 | 32221 ft | 448 kts | 337° |
| 2026-04-25 12:08 | 53.53595 | -1.97098 | 32220 ft | 448 kts | 337° |
| 2026-04-25 12:09 | 53.59421 | -2.00799 | 32220 ft | 448 kts | 337° |
| 2026-04-25 12:09 | 53.65256 | -2.04506 | 32220 ft | 448 kts | 337° |
| 2026-04-25 12:10 | 53.71064 | -2.08205 | 32230 ft | 448 kts | 337° |
| 2026-04-25 12:10 | 53.73948 | -2.10051 | 31783 ft | 447 kts | 339° |
| 2026-04-25 12:10 | 53.76850 | -2.11938 | 31973 ft | 445 kts | 338° |
| 2026-04-25 12:11 | 53.82606 | -2.15851 | 32009 ft | 448 kts | 337° |
| 2026-04-25 12:11 | 53.88404 | -2.19871 | 32009 ft | 452 kts | 337° |
| 2026-04-25 12:12 | 53.93256 | -2.23221 | 32009 ft | 455 kts | 338° |
| 2026-04-25 12:12 | 54.00144 | -2.27953 | 32009 ft | 459 kts | 338° |
| 2026-04-25 12:13 | 54.06085 | -2.32042 | 32009 ft | 462 kts | 338° |
| 2026-04-25 12:13 | 54.12041 | -2.36191 | 32009 ft | 464 kts | 337° |
| 2026-04-25 12:14 | 54.18042 | -2.40420 | 32009 ft | 467 kts | 337° |
| 2026-04-25 12:14 | 54.24064 | -2.44640 | 32009 ft | 469 kts | 338° |
| 2026-04-25 12:15 | 54.30149 | -2.48803 | 32009 ft | 471 kts | 338° |
| 2026-04-25 12:15 | 54.36205 | -2.52980 | 32009 ft | 473 kts | 338° |
| 2026-04-25 12:16 | 54.42316 | -2.57282 | 32009 ft | 475 kts | 337° |
| 2026-04-25 12:16 | 54.48440 | -2.61615 | 32009 ft | 477 kts | 337° |
| 2026-04-25 12:17 | 54.54585 | -2.65966 | 32009 ft | 478 kts | 337° |
| 2026-04-25 12:17 | 54.60757 | -2.70345 | 32009 ft | 480 kts | 337° |
| 2026-04-25 12:18 | 54.63843 | -2.72541 | 31871 ft | 479 kts | 337° |
| 2026-04-25 12:18 | 54.66941 | -2.74746 | 30592 ft | 489 kts | 337° |
| 2026-04-25 12:18 | 54.70121 | -2.77015 | 29399 ft | 492 kts | 337° |
| 2026-04-25 12:18 | 54.73180 | -2.79202 | 28895 ft | 473 kts | 337° |
| 2026-04-25 12:19 | 54.78148 | -2.82761 | 27896 ft | 449 kts | 337° |
| 2026-04-25 12:19 | 54.81892 | -2.85458 | 27145 ft | 432 kts | 337° |
| 2026-04-25 12:19 | 54.84648 | -2.87443 | 26599 ft | 427 kts | 337° |
| 2026-04-25 12:20 | 54.87370 | -2.89401 | 26053 ft | 426 kts | 337° |
| 2026-04-25 12:20 | 54.90115 | -2.91381 | 25462 ft | 431 kts | 337° |
| 2026-04-25 12:20 | 54.92906 | -2.93396 | 24843 ft | 436 kts | 337° |
| 2026-04-25 12:20 | 54.95708 | -2.95421 | 24230 ft | 435 kts | 337° |
| 2026-04-25 12:21 | 54.98493 | -2.97434 | 23613 ft | 433 kts | 337° |
| 2026-04-25 12:21 | 55.01277 | -2.99445 | 22953 ft | 433 kts | 337° |
| 2026-04-25 12:21 | 55.04050 | -3.01453 | 22395 ft | 430 kts | 337° |
| 2026-04-25 12:21 | 55.06805 | -3.03459 | 21787 ft | 428 kts | 337° |
| 2026-04-25 12:22 | 55.09547 | -3.05464 | 21185 ft | 426 kts | 337° |
| 2026-04-25 12:22 | 55.12279 | -3.07473 | 20584 ft | 425 kts | 337° |
| 2026-04-25 12:22 | 55.14998 | -3.09472 | 19981 ft | 423 kts | 337° |
| 2026-04-25 12:22 | 55.17724 | -3.11473 | 18977 ft | 429 kts | 337° |
| 2026-04-25 12:23 | 55.20499 | -3.13508 | 17824 ft | 436 kts | 337° |
| 2026-04-25 12:23 | 55.23272 | -3.15543 | 16761 ft | 427 kts | 337° |
| 2026-04-25 12:23 | 55.25930 | -3.17497 | 16490 ft | 397 kts | 337° |
| 2026-04-25 12:23 | 55.28379 | -3.19298 | 16394 ft | 367 kts | 337° |
| 2026-04-25 12:24 | 55.30659 | -3.20977 | 16231 ft | 344 kts | 336° |
| 2026-04-25 12:24 | 55.32829 | -3.22576 | 15769 ft | 333 kts | 336° |
| 2026-04-25 12:24 | 55.34922 | -3.24120 | 15193 ft | 328 kts | 336° |
| 2026-04-25 12:24 | 55.37011 | -3.25662 | 14588 ft | 324 kts | 336° |
| 2026-04-25 12:25 | 55.39085 | -3.27194 | 13976 ft | 321 kts | 336° |
| 2026-04-25 12:25 | 55.41126 | -3.28702 | 13370 ft | 317 kts | 336° |
| 2026-04-25 12:25 | 55.43114 | -3.30328 | 12765 ft | 313 kts | 331° |
| 2026-04-25 12:25 | 55.45005 | -3.32187 | 12167 ft | 310 kts | 330° |
| 2026-04-25 12:26 | 55.46872 | -3.34063 | 11578 ft | 307 kts | 329° |
| 2026-04-25 12:26 | 55.48720 | -3.35926 | 10990 ft | 304 kts | 329° |
| 2026-04-25 12:26 | 55.50545 | -3.37767 | 10417 ft | 301 kts | 329° |
| 2026-04-25 12:26 | 55.52357 | -3.39597 | 9841 ft | 298 kts | 329° |
| 2026-04-25 12:27 | 55.54149 | -3.41395 | 9264 ft | 295 kts | 329° |
| 2026-04-25 12:27 | 55.55805 | -3.43472 | 8681 ft | 291 kts | 321° |
| 2026-04-25 12:27 | 55.57366 | -3.45740 | 8110 ft | 289 kts | 319° |
| 2026-04-25 12:27 | 55.58861 | -3.47999 | 7556 ft | 286 kts | 318° |
| 2026-04-25 12:28 | 55.60373 | -3.50325 | 7082 ft | 279 kts | 318° |
| 2026-04-25 12:28 | 55.61781 | -3.52502 | 6955 ft | 260 kts | 318° |
| 2026-04-25 12:28 | 55.63083 | -3.54517 | 6808 ft | 244 kts | 318° |
| 2026-04-25 12:28 | 55.64358 | -3.56490 | 6443 ft | 237 kts | 318° |
| 2026-04-25 12:29 | 55.65577 | -3.58380 | 6007 ft | 235 kts | 318° |
| 2026-04-25 12:29 | 55.66802 | -3.60278 | 5555 ft | 233 kts | 318° |
| 2026-04-25 12:29 | 55.68020 | -3.62157 | 5104 ft | 231 kts | 318° |
| 2026-04-25 12:29 | 55.69228 | -3.64020 | 4706 ft | 231 kts | 319° |
| 2026-04-25 12:30 | 55.70457 | -3.65845 | 4428 ft | 229 kts | 320° |
| 2026-04-25 12:30 | 55.71687 | -3.67624 | 4142 ft | 228 kts | 320° |
| 2026-04-25 12:30 | 55.72913 | -3.69387 | 3854 ft | 226 kts | 320° |
| 2026-04-25 12:30 | 55.74132 | -3.71147 | 3738 ft | 226 kts | 320° |
| 2026-04-25 12:31 | 55.75351 | -3.72914 | 3744 ft | 227 kts | 319° |
| 2026-04-25 12:31 | 55.76513 | -3.74794 | 3745 ft | 227 kts | 315° |
| 2026-04-25 12:31 | 55.77620 | -3.76753 | 3746 ft | 227 kts | 314° |
| 2026-04-25 12:31 | 55.78840 | -3.78498 | 3733 ft | 227 kts | 338° |
| 2026-04-25 12:32 | 55.80370 | -3.78624 | 3738 ft | 219 kts | 20° |
| 2026-04-25 12:32 | 55.81477 | -3.76997 | 3741 ft | 204 kts | 60° |
| 2026-04-25 12:32 | 55.82163 | -3.74819 | 3774 ft | 200 kts | 59° |
| 2026-04-25 12:32 | 55.82878 | -3.72711 | 3756 ft | 198 kts | 59° |
| 2026-04-25 12:33 | 55.83594 | -3.70628 | 3745 ft | 197 kts | 59° |
| 2026-04-25 12:33 | 55.84311 | -3.68544 | 3742 ft | 197 kts | 59° |
| 2026-04-25 12:33 | 55.85027 | -3.66461 | 3607 ft | 197 kts | 59° |
| 2026-04-25 12:33 | 55.85739 | -3.64387 | 3381 ft | 196 kts | 59° |
| 2026-04-25 12:34 | 55.86447 | -3.62323 | 3130 ft | 195 kts | 59° |
| 2026-04-25 12:34 | 55.87149 | -3.60273 | 2875 ft | 193 kts | 59° |
| 2026-04-25 12:34 | 55.87836 | -3.58267 | 2639 ft | 185 kts | 59° |
| 2026-04-25 12:34 | 55.88270 | -3.57000 | 2467 ft | 179 kts | 59° |
| 2026-04-25 12:35 | 55.89120 | -3.54515 | 2151 ft | 172 kts | 59° |
| 2026-04-25 12:35 | 55.89734 | -3.52715 | 1927 ft | 171 kts | 59° |
| 2026-04-25 12:35 | 55.90350 | -3.50913 | 1700 ft | 170 kts | 59° |
| 2026-04-25 12:35 | 55.90961 | -3.49120 | 1477 ft | 169 kts | 59° |
| 2026-04-25 12:36 | 55.91572 | -3.47330 | 1252 ft | 168 kts | 59° |
| 2026-04-25 12:36 | 55.92164 | -3.45590 | 1029 ft | 159 kts | 59° |
| 2026-04-25 12:36 | 55.92724 | -3.43944 | 834 ft | 153 kts | 59° |
| 2026-04-25 12:36 | 55.93269 | -3.42329 | 622 ft | 151 kts | 59° |
| 2026-04-25 12:37 | 55.93807 | -3.40736 | 429 ft | 150 kts | 59° |
| 2026-04-25 12:37 | 55.94350 | -3.39153 | 214 ft | 149 kts | 58° |
| 2026-04-25 12:37 | 55.94878 | -3.37610 | 115 ft | 134 kts | 58° |
| 2026-04-25 12:37 | 55.95196 | -3.36671 | 114 ft | 40 kts | 58° |
| 2026-04-25 12:38 | 55.95261 | -3.36465 | 111 ft | 12 kts | 84° |
| 2026-04-25 12:38 | 55.95216 | -3.36376 | 114 ft | 7 kts | 147° |
| 2026-04-25 12:38 | 55.95185 | -3.36341 | 115 ft | 5 kts | 149° |
| 2026-04-25 12:38 | 55.95167 | -3.36322 | 116 ft | 0 kts | 149° |
| 2026-04-25 12:39 | 55.95166 | -3.36321 | 116 ft | 0 kts | 149° |
| 2026-04-25 12:39 | 55.95165 | -3.36320 | 116 ft | 1 kts | 149° |
| 2026-04-25 12:40 | 55.95155 | -3.36313 | 116 ft | 2 kts | 160° |
| 2026-04-25 12:40 | 55.95134 | -3.36316 | 116 ft | 4 kts | 194° |
| 2026-04-25 12:40 | 55.95109 | -3.36356 | 116 ft | 6 kts | 234° |
| 2026-04-25 12:40 | 55.95070 | -3.36396 | 116 ft | 8 kts | 177° |
| 2026-04-25 12:41 | 55.95044 | -3.36379 | 116 ft | 0 kts | 153° |
| 2026-04-25 12:41 | 55.95037 | -3.36371 | 116 ft | 2 kts | 146° |
| 2026-04-25 12:41 | 55.95014 | -3.36342 | 116 ft | 6 kts | 146° |
| 2026-04-25 12:41 | 55.94976 | -3.36299 | 116 ft | 6 kts | 148° |
| 2026-04-25 12:42 | 55.94961 | -3.36282 | 116 ft | 1 kts | 147° |
| 2026-04-25 12:42 | 55.94960 | -3.36282 | 116 ft | 0 kts | 147° |